createdAt,value
2018-05-07T00:00:51.968Z,62.64
2018-05-07T00:03:19.412Z,62.63
2018-05-07T00:05:46.853Z,62.51
2018-05-07T00:08:14.249Z,62.52
2018-05-07T00:10:41.992Z,62.71
2018-05-07T00:13:09.427Z,62.88
2018-05-07T00:15:36.958Z,62.84
2018-05-07T00:18:05.221Z,62.88
2018-05-07T00:20:32.712Z,62.74
2018-05-07T00:23:00.175Z,62.65
2018-05-07T00:25:28.234Z,62.68
2018-05-07T00:27:55.639Z,62.98
2018-05-07T00:30:23.043Z,63.27
2018-05-07T00:32:50.492Z,63.28
2018-05-07T00:35:17.895Z,63.45
2018-05-07T00:37:45.372Z,63.53
2018-05-07T00:40:12.818Z,63.35
2018-05-07T00:42:40.288Z,63.38
2018-05-07T00:45:07.776Z,63.60
2018-05-07T00:47:35.222Z,63.66
2018-05-07T00:50:02.610Z,63.80
2018-05-07T00:52:30.074Z,63.86
2018-05-07T00:55:09.211Z,63.93
2018-05-07T00:57:36.715Z,64.11
2018-05-07T01:00:04.240Z,64.42
2018-05-07T01:02:31.713Z,64.63
2018-05-07T01:04:59.155Z,64.57
2018-05-07T01:07:26.582Z,64.53
2018-05-07T01:09:54.076Z,64.35
2018-05-07T01:12:21.522Z,64.33
2018-05-07T01:14:48.953Z,64.52
2018-05-07T01:17:16.388Z,64.68
2018-05-07T01:19:43.841Z,64.68
2018-05-07T01:22:11.278Z,64.63
2018-05-07T01:24:38.683Z,64.59
2018-05-07T01:27:06.645Z,64.69
2018-05-07T01:29:34.043Z,64.94
2018-05-07T01:32:01.450Z,65.18
2018-05-07T01:34:28.881Z,65.38
2018-05-07T01:36:56.324Z,65.46
2018-05-07T01:39:23.826Z,65.60
2018-05-07T01:41:51.269Z,65.78
2018-05-07T01:44:18.714Z,65.72
2018-05-07T01:46:46.190Z,65.73
2018-05-07T01:49:13.726Z,65.70
2018-05-07T01:51:41.290Z,65.74
2018-05-07T01:54:08.935Z,65.83
2018-05-07T01:56:36.337Z,66.03
2018-05-07T01:59:03.774Z,66.18
2018-05-07T02:01:31.195Z,66.24
2018-05-07T02:03:58.668Z,66.31
2018-05-07T02:06:26.063Z,66.25
2018-05-07T02:08:53.488Z,66.08
2018-05-07T02:11:20.929Z,66.06
2018-05-07T02:13:48.399Z,66.19
2018-05-07T02:16:16.339Z,66.15
2018-05-07T02:18:43.783Z,66.09
2018-05-07T02:21:12.084Z,66.26
2018-05-07T02:23:40.087Z,66.58
2018-05-07T02:26:07.740Z,66.72
2018-05-07T02:28:35.142Z,66.80
2018-05-07T02:31:02.767Z,66.91
2018-05-07T02:33:30.208Z,67.07
2018-05-07T02:35:57.623Z,67.10
2018-05-07T02:38:25.072Z,67.13
2018-05-07T02:40:52.689Z,67.49
2018-05-07T02:43:20.166Z,67.61
2018-05-07T02:45:47.803Z,67.63
2018-05-07T02:48:15.255Z,67.59
2018-05-07T02:50:42.725Z,67.85
2018-05-07T02:53:10.122Z,68.03
2018-05-07T02:55:37.571Z,67.97
2018-05-07T02:58:05.018Z,67.82
2018-05-07T03:00:32.449Z,67.84
2018-05-07T03:02:59.885Z,67.90
2018-05-07T03:05:27.350Z,67.91
2018-05-07T03:07:54.831Z,67.90
2018-05-07T03:10:22.330Z,68.09
2018-05-07T03:12:49.793Z,68.60
2018-05-07T03:15:17.258Z,68.55
2018-05-07T03:17:44.778Z,68.52
2018-05-07T03:20:12.240Z,69.07
2018-05-07T03:22:39.680Z,68.86
2018-05-07T03:25:07.383Z,68.76
2018-05-07T03:27:34.783Z,68.94
2018-05-07T03:30:02.359Z,69.00
2018-05-07T03:32:29.800Z,68.81
2018-05-07T03:34:57.212Z,69.07
2018-05-07T03:37:24.622Z,69.20
2018-05-07T03:39:52.905Z,68.77
2018-05-07T03:42:20.381Z,68.52
2018-05-07T03:44:47.813Z,68.46
2018-05-07T03:47:15.991Z,68.92
2018-05-07T03:49:43.474Z,68.82
2018-05-07T03:52:10.982Z,68.56
2018-05-07T03:54:38.390Z,68.40
2018-05-07T03:57:05.856Z,68.56
2018-05-07T03:59:33.300Z,68.83
2018-05-07T04:02:00.702Z,68.91
2018-05-07T04:04:28.114Z,68.80
2018-05-07T04:06:55.636Z,69.06
2018-05-07T04:09:23.156Z,69.08
2018-05-07T04:11:50.640Z,68.86
2018-05-07T04:14:18.076Z,68.72
2018-05-07T04:16:57.413Z,68.64
2018-05-07T04:19:36.719Z,68.68
2018-05-07T04:22:15.789Z,68.80
2018-05-07T04:24:43.267Z,68.60
2018-05-07T04:27:10.757Z,68.56
2018-05-07T04:29:38.215Z,68.45
2018-05-07T04:32:05.731Z,68.26
2018-05-07T04:34:33.163Z,68.06
2018-05-07T04:37:00.597Z,67.90
2018-05-07T04:39:28.363Z,67.65
2018-05-07T04:41:55.812Z,68.04
2018-05-07T04:44:23.228Z,68.42
2018-05-07T04:46:50.666Z,68.83
2018-05-07T04:49:18.085Z,68.81
2018-05-07T04:51:45.536Z,68.81
2018-05-07T04:54:12.969Z,68.69
2018-05-07T04:56:40.441Z,68.11
2018-05-07T04:59:07.942Z,68.10
2018-05-07T05:01:35.392Z,67.49
2018-05-07T05:04:02.802Z,67.15
2018-05-07T05:06:30.239Z,67.03
2018-05-07T05:08:57.647Z,67.01
2018-05-07T05:11:25.055Z,66.63
2018-05-07T05:13:52.473Z,65.75
2018-05-07T05:16:19.880Z,65.65
2018-05-07T05:18:47.324Z,65.00
2018-05-07T05:21:14.912Z,64.47
2018-05-07T05:23:42.178Z,64.42
2018-05-07T05:26:09.614Z,63.96
2018-05-07T05:28:37.084Z,63.76
2018-05-07T05:31:04.612Z,63.57
2018-05-07T05:33:32.227Z,63.41
2018-05-07T05:35:59.764Z,63.41
2018-05-07T05:38:27.261Z,63.50
2018-05-07T05:40:54.942Z,63.27
2018-05-07T05:43:22.452Z,62.89
2018-05-07T05:45:49.936Z,62.31
2018-05-07T05:48:17.388Z,61.75
2018-05-07T05:50:44.993Z,61.47
2018-05-07T05:53:12.468Z,61.21
2018-05-07T05:55:39.954Z,61.25
2018-05-07T05:58:07.438Z,61.41
2018-05-07T06:00:34.850Z,61.24
2018-05-07T06:03:02.309Z,60.85
2018-05-07T06:05:29.800Z,60.67
2018-05-07T06:07:57.251Z,60.46
2018-05-07T06:10:24.724Z,59.94
2018-05-07T06:12:52.172Z,59.13
2018-05-07T06:15:19.604Z,57.79
2018-05-07T06:17:47.077Z,57.70
2018-05-07T06:20:14.540Z,56.75
2018-05-07T06:22:41.943Z,56.04
2018-05-07T06:25:09.710Z,55.65
2018-05-07T06:27:37.381Z,55.88
2018-05-07T06:30:04.847Z,54.91
2018-05-07T06:32:32.505Z,54.69
2018-05-07T06:34:59.947Z,54.75
2018-05-07T06:37:27.391Z,53.84
2018-05-07T06:39:54.875Z,53.39
2018-05-07T06:42:22.310Z,52.35
2018-05-07T06:44:49.768Z,51.49
2018-05-07T06:47:17.191Z,50.94
2018-05-07T06:49:44.642Z,50.50
2018-05-07T06:52:12.116Z,48.52
2018-05-07T06:54:39.603Z,48.06
2018-05-07T06:57:07.187Z,47.13
2018-05-07T06:59:34.621Z,46.40
2018-05-07T07:02:02.172Z,45.95
2018-05-07T07:04:29.587Z,45.54
2018-05-07T07:06:56.987Z,44.60
2018-05-07T07:09:24.507Z,44.04
2018-05-07T07:11:51.917Z,43.69
2018-05-07T07:14:19.401Z,44.11
2018-05-07T07:16:46.840Z,42.35
2018-05-07T07:19:14.482Z,42.18
2018-05-07T07:21:42.184Z,41.20
2018-05-07T07:24:09.587Z,40.84
2018-05-07T07:26:37.050Z,40.26
2018-05-07T07:29:04.530Z,39.61
2018-05-07T07:31:31.972Z,37.65
2018-05-07T07:33:59.487Z,37.23
2018-05-07T07:36:26.916Z,37.50
2018-05-07T07:38:54.340Z,37.53
2018-05-07T07:41:22.360Z,36.82
2018-05-07T07:43:49.823Z,35.85
2018-05-07T07:46:17.267Z,34.96
2018-05-07T07:48:44.657Z,34.56
2018-05-07T07:51:12.427Z,33.72
2018-05-07T07:53:39.894Z,34.47
2018-05-07T07:56:07.352Z,34.94
2018-05-07T07:58:35.173Z,35.01
2018-05-07T08:01:02.918Z,34.80
2018-05-07T08:03:30.323Z,33.27
2018-05-07T08:05:57.760Z,32.77
2018-05-07T08:08:25.174Z,32.30
2018-05-07T08:10:52.663Z,32.85
2018-05-07T08:13:20.095Z,32.71
2018-05-07T08:15:47.499Z,31.93
2018-05-07T08:18:14.949Z,31.72
2018-05-07T08:20:42.377Z,30.89
2018-05-07T08:23:09.792Z,30.33
2018-05-07T08:25:37.277Z,30.18
2018-05-07T08:28:04.767Z,30.08
2018-05-07T08:30:32.262Z,29.72
2018-05-07T08:32:59.835Z,30.15
2018-05-07T08:35:27.314Z,30.83
2018-05-07T08:37:54.717Z,30.91
2018-05-07T08:40:22.139Z,30.19
2018-05-07T08:42:50.202Z,29.92
2018-05-07T08:45:17.667Z,30.33
2018-05-07T08:47:45.088Z,30.47
2018-05-07T08:50:12.493Z,31.20
2018-05-07T08:52:39.912Z,30.74
2018-05-07T08:55:07.349Z,31.39
2018-05-07T08:57:35.126Z,31.52
2018-05-07T09:00:02.600Z,31.58
2018-05-07T09:02:30.037Z,32.02
2018-05-07T09:04:57.491Z,32.18
2018-05-07T09:07:24.958Z,32.49
2018-05-07T09:09:52.436Z,32.57
2018-05-07T09:12:19.919Z,32.01
2018-05-07T09:14:47.366Z,32.45
2018-05-07T09:17:14.798Z,32.55
2018-05-07T09:19:42.243Z,32.06
2018-05-07T09:22:09.657Z,32.22
2018-05-07T09:24:37.165Z,32.19
2018-05-07T09:27:04.616Z,32.18
2018-05-07T09:29:32.061Z,32.39
2018-05-07T09:31:59.462Z,31.77
2018-05-07T09:34:27.169Z,30.87
2018-05-07T09:36:54.641Z,30.72
2018-05-07T09:39:22.072Z,31.20
2018-05-07T09:41:49.564Z,30.71
2018-05-07T09:44:17.007Z,29.62
2018-05-07T09:46:44.627Z,29.67
2018-05-07T09:49:12.103Z,30.34
2018-05-07T09:51:39.625Z,29.61
2018-05-07T09:54:07.094Z,29.53
2018-05-07T09:56:46.328Z,29.74
2018-05-07T09:59:13.744Z,29.26
2018-05-07T10:01:41.175Z,28.58
2018-05-07T10:04:08.576Z,28.43
2018-05-07T10:06:36.040Z,28.58
2018-05-07T10:09:03.507Z,28.62
2018-05-07T10:11:30.949Z,28.63
2018-05-07T10:13:58.360Z,28.83
2018-05-07T10:16:25.863Z,29.26
2018-05-07T10:18:53.321Z,28.88
2018-05-07T10:21:20.753Z,28.73
2018-05-07T10:23:48.187Z,28.92
2018-05-07T10:26:15.614Z,29.66
2018-05-07T10:28:43.104Z,29.66
2018-05-07T10:31:10.573Z,29.70
2018-05-07T10:33:37.969Z,30.05
2018-05-07T10:36:05.414Z,30.28
2018-05-07T10:38:32.827Z,30.59
2018-05-07T10:41:00.284Z,30.94
2018-05-07T10:43:27.720Z,30.41
2018-05-07T10:45:55.209Z,29.99
2018-05-07T10:48:22.690Z,29.20
2018-05-07T10:50:50.162Z,29.86
2018-05-07T10:53:17.556Z,29.81
2018-05-07T10:55:44.995Z,30.73
2018-05-07T10:58:12.399Z,30.29
2018-05-07T11:00:39.897Z,29.73
2018-05-07T11:03:09.112Z,29.79
2018-05-07T11:05:36.573Z,30.08
2018-05-07T11:08:04.082Z,29.77
2018-05-07T11:10:31.514Z,30.55
2018-05-07T11:12:58.912Z,30.77
2018-05-07T11:15:26.424Z,31.08
2018-05-07T11:17:53.838Z,30.77
2018-05-07T11:20:21.281Z,30.04
2018-05-07T11:22:48.714Z,29.77
2018-05-07T11:25:16.195Z,29.86
2018-05-07T11:27:43.587Z,29.57
2018-05-07T11:30:11.065Z,29.26
2018-05-07T11:32:38.549Z,28.70
2018-05-07T11:35:06.029Z,28.78
2018-05-07T11:37:33.453Z,29.04
2018-05-07T11:40:00.898Z,29.12
2018-05-07T11:42:28.727Z,28.46
2018-05-07T11:44:56.135Z,28.04
2018-05-07T11:47:23.953Z,27.89
2018-05-07T11:49:51.411Z,27.94
2018-05-07T11:52:18.995Z,28.04
2018-05-07T11:54:46.495Z,27.93
2018-05-07T11:57:13.929Z,27.97
2018-05-07T11:59:41.332Z,28.24
2018-05-07T12:02:08.820Z,28.27
2018-05-07T12:04:36.230Z,28.10
2018-05-07T12:07:03.677Z,28.18
2018-05-07T12:09:31.115Z,28.51
2018-05-07T12:11:58.528Z,29.04
2018-05-07T12:14:25.977Z,29.10
2018-05-07T12:16:53.439Z,29.08
2018-05-07T12:19:21.428Z,28.69
2018-05-07T12:21:48.980Z,28.88
2018-05-07T12:24:16.453Z,28.83
2018-05-07T12:26:43.849Z,28.23
2018-05-07T12:29:11.259Z,27.73
2018-05-07T12:31:38.839Z,27.95
2018-05-07T12:34:06.143Z,27.72
2018-05-07T12:36:36.479Z,28.47
2018-05-07T12:39:04.040Z,29.18
2018-05-07T12:41:31.457Z,29.51
2018-05-07T12:43:58.895Z,30.75
2018-05-07T12:46:26.302Z,32.24
2018-05-07T12:48:53.751Z,32.83
2018-05-07T12:51:21.222Z,32.75
2018-05-07T12:53:48.796Z,32.65
2018-05-07T12:56:16.229Z,33.39
2018-05-07T12:58:43.672Z,33.83
2018-05-07T13:01:11.122Z,33.86
2018-05-07T13:03:38.692Z,32.34
2018-05-07T13:06:06.089Z,30.92
2018-05-07T13:08:33.560Z,30.35
2018-05-07T13:11:00.974Z,30.10
2018-05-07T13:13:28.431Z,29.72
2018-05-07T13:15:56.831Z,29.87
2018-05-07T13:18:24.308Z,30.11
2018-05-07T13:20:51.785Z,29.86
2018-05-07T13:23:19.262Z,29.92
2018-05-07T13:25:46.700Z,29.80
2018-05-07T13:28:14.133Z,30.36
2018-05-07T13:30:41.672Z,30.76
2018-05-07T13:33:09.098Z,30.46
2018-05-07T13:35:36.595Z,30.44
2018-05-07T13:38:04.195Z,30.22
2018-05-07T13:40:31.697Z,30.38
2018-05-07T13:42:59.163Z,30.21
2018-05-07T13:45:26.619Z,29.98
2018-05-07T13:47:54.097Z,29.65
2018-05-07T13:50:21.576Z,29.22
2018-05-07T13:52:49.287Z,28.77
2018-05-07T13:55:16.828Z,28.41
2018-05-07T13:57:44.335Z,28.14
2018-05-07T14:00:11.818Z,28.61
2018-05-07T14:02:39.341Z,28.45
2018-05-07T14:05:06.952Z,28.03
2018-05-07T14:07:34.416Z,28.13
2018-05-07T14:10:01.863Z,28.33
2018-05-07T14:12:29.421Z,28.04
2018-05-07T14:14:57.251Z,27.35
2018-05-07T14:17:24.690Z,28.14
2018-05-07T14:19:52.209Z,29.56
2018-05-07T14:22:19.614Z,29.77
2018-05-07T14:24:47.130Z,29.94
2018-05-07T14:27:14.616Z,30.77
2018-05-07T14:29:42.047Z,30.67
2018-05-07T14:32:09.540Z,30.48
2018-05-07T14:34:37.080Z,30.60
2018-05-07T14:37:04.565Z,29.50
2018-05-07T14:39:32.418Z,29.61
2018-05-07T14:41:59.859Z,29.41
2018-05-07T14:44:27.345Z,30.03
2018-05-07T14:46:54.830Z,30.35
2018-05-07T14:49:22.309Z,30.37
2018-05-07T14:51:49.794Z,29.76
2018-05-07T14:54:17.302Z,29.86
2018-05-07T14:56:44.762Z,29.47
2018-05-07T14:59:12.269Z,29.01
2018-05-07T15:01:39.664Z,28.42
2018-05-07T15:04:07.895Z,28.30
2018-05-07T15:06:35.341Z,28.38
2018-05-07T15:09:02.764Z,28.77
2018-05-07T15:11:30.198Z,28.56
2018-05-07T15:14:09.562Z,28.17
2018-05-07T15:16:36.985Z,27.10
2018-05-07T15:19:04.451Z,26.32
2018-05-07T15:21:31.928Z,25.72
2018-05-07T15:23:59.399Z,25.79
2018-05-07T15:26:26.823Z,26.65
2018-05-07T15:28:54.276Z,26.74
2018-05-07T15:31:21.711Z,27.04
2018-05-07T15:33:49.178Z,27.52
2018-05-07T15:36:16.663Z,27.64
2018-05-07T15:38:44.221Z,28.25
2018-05-07T15:41:11.762Z,29.10
2018-05-07T15:43:40.060Z,28.39
2018-05-07T15:46:07.471Z,28.23
2018-05-07T15:48:34.960Z,27.92
2018-05-07T15:51:02.384Z,27.77
2018-05-07T15:53:29.795Z,28.26
2018-05-07T15:55:57.400Z,28.72
2018-05-07T15:58:24.847Z,29.24
2018-05-07T16:00:52.295Z,29.71
2018-05-07T16:03:19.893Z,29.82
2018-05-07T16:05:47.418Z,30.50
2018-05-07T16:08:14.823Z,30.84
2018-05-07T16:10:42.433Z,31.19
2018-05-07T16:13:09.859Z,31.76
2018-05-07T16:15:37.483Z,31.75
2018-05-07T16:18:04.986Z,32.26
2018-05-07T16:20:32.464Z,32.21
2018-05-07T16:23:00.081Z,32.42
2018-05-07T16:25:27.584Z,32.89
2018-05-07T16:27:55.177Z,32.77
2018-05-07T16:30:22.658Z,32.84
2018-05-07T16:32:50.181Z,33.01
2018-05-07T16:35:18.427Z,33.22
2018-05-07T16:37:45.390Z,33.88
2018-05-07T16:40:12.930Z,34.08
2018-05-07T16:42:40.498Z,34.37
2018-05-07T16:45:07.931Z,34.39
2018-05-07T16:47:35.494Z,34.81
2018-05-07T16:50:02.949Z,35.00
2018-05-07T16:52:30.515Z,34.82
2018-05-07T16:54:57.915Z,35.19
2018-05-07T16:57:25.391Z,35.05
2018-05-07T16:59:53.136Z,34.02
2018-05-07T17:02:20.572Z,34.15
2018-05-07T17:04:48.102Z,34.16
2018-05-07T17:07:15.551Z,34.30
2018-05-07T17:09:44.000Z,34.33
2018-05-07T17:12:11.458Z,34.23
2018-05-07T17:14:39.186Z,34.57
2018-05-07T17:17:06.728Z,34.92
2018-05-07T17:19:34.131Z,35.16
2018-05-07T17:22:01.556Z,35.91
2018-05-07T17:24:29.089Z,36.60
2018-05-07T17:26:56.633Z,37.02
2018-05-07T17:29:24.110Z,37.32
2018-05-07T17:31:51.569Z,37.34
2018-05-07T17:34:19.054Z,37.57
2018-05-07T17:36:46.525Z,37.66
2018-05-07T17:39:14.007Z,38.27
2018-05-07T17:41:41.451Z,38.63
2018-05-07T17:44:20.770Z,39.17
2018-05-07T17:46:59.975Z,40.39
2018-05-07T17:49:27.591Z,41.96
2018-05-07T17:51:54.996Z,43.51
2018-05-07T17:54:22.527Z,43.79
2018-05-07T17:56:50.091Z,44.53
2018-05-07T17:59:17.601Z,45.25
2018-05-07T18:01:45.022Z,45.46
2018-05-07T18:04:12.613Z,45.44
2018-05-07T18:06:40.092Z,45.09
2018-05-07T18:09:07.581Z,45.00
2018-05-07T18:11:35.285Z,44.68
2018-05-07T18:14:02.809Z,44.62
2018-05-07T18:16:30.603Z,44.55
2018-05-07T18:18:58.051Z,44.50
2018-05-07T18:21:25.627Z,44.02
2018-05-07T18:23:53.121Z,44.01
2018-05-07T18:26:20.614Z,43.80
2018-05-07T18:28:48.059Z,43.35
2018-05-07T18:31:15.639Z,42.78
2018-05-07T18:33:43.108Z,42.45
2018-05-07T18:36:11.026Z,41.97
2018-05-07T18:38:38.395Z,41.91
2018-05-07T18:41:05.814Z,41.80
2018-05-07T18:43:33.271Z,41.41
2018-05-07T18:46:00.948Z,41.51
2018-05-07T18:48:28.594Z,42.15
2018-05-07T18:50:56.050Z,42.03
2018-05-07T18:53:23.521Z,42.17
2018-05-07T18:55:50.964Z,41.22
2018-05-07T18:58:18.412Z,40.46
2018-05-07T19:00:45.913Z,40.56
2018-05-07T19:03:13.412Z,40.81
2018-05-07T19:05:40.914Z,40.93
2018-05-07T19:08:08.328Z,41.96
2018-05-07T19:10:36.229Z,42.09
2018-05-07T19:13:03.795Z,41.85
2018-05-07T19:15:31.218Z,42.14
2018-05-07T19:17:58.779Z,42.46
2018-05-07T19:20:26.488Z,42.63
2018-05-07T19:22:53.945Z,42.78
2018-05-07T19:25:21.778Z,43.05
2018-05-07T19:27:49.169Z,43.19
2018-05-07T19:30:16.701Z,43.52
2018-05-07T19:32:44.127Z,43.85
2018-05-07T19:35:11.629Z,43.85
2018-05-07T19:37:39.476Z,43.88
2018-05-07T19:40:06.998Z,44.07
2018-05-07T19:42:34.444Z,44.17
2018-05-07T19:45:01.882Z,43.85
2018-05-07T19:47:29.330Z,43.89
2018-05-07T19:49:57.659Z,43.71
2018-05-07T19:52:25.090Z,43.72
2018-05-07T19:54:52.592Z,43.68
2018-05-07T19:57:20.100Z,43.87
2018-05-07T19:59:47.579Z,43.83
2018-05-07T20:02:14.992Z,43.71
2018-05-07T20:04:42.520Z,43.93
2018-05-07T20:07:09.973Z,43.57
2018-05-07T20:09:37.437Z,43.60
2018-05-07T20:12:04.942Z,43.69
2018-05-07T20:14:32.427Z,44.09
2018-05-07T20:16:59.948Z,44.41
2018-05-07T20:19:27.447Z,44.58
2018-05-07T20:21:55.107Z,45.23
2018-05-07T20:24:22.593Z,45.40
2018-05-07T20:26:50.050Z,45.44
2018-05-07T20:29:17.511Z,46.23
2018-05-07T20:31:44.994Z,46.79
2018-05-07T20:34:12.455Z,47.38
2018-05-07T20:36:39.879Z,47.47
2018-05-07T20:39:07.280Z,47.43
2018-05-07T20:41:34.702Z,47.09
2018-05-07T20:44:02.296Z,47.06
2018-05-07T20:46:29.762Z,46.88
2018-05-07T20:48:57.254Z,47.21
2018-05-07T20:51:24.747Z,47.04
2018-05-07T20:53:52.225Z,46.91
2018-05-07T20:56:19.971Z,46.86
2018-05-07T20:58:47.438Z,47.03
2018-05-07T21:01:14.905Z,46.83
2018-05-07T21:03:42.305Z,46.83
2018-05-07T21:06:09.787Z,46.82
2018-05-07T21:08:37.637Z,47.07
2018-05-07T21:11:05.059Z,46.85
2018-05-07T21:13:32.495Z,46.70
2018-05-07T21:15:59.906Z,46.59
2018-05-07T21:18:27.340Z,46.60
2018-05-07T21:20:54.777Z,46.36
2018-05-07T21:23:22.220Z,46.35
2018-05-07T21:25:49.871Z,46.49
2018-05-07T21:28:17.356Z,46.91
2018-05-07T21:30:44.740Z,46.71
2018-05-07T21:33:12.178Z,46.67
2018-05-07T21:35:39.662Z,47.00
2018-05-07T21:38:07.228Z,46.77
2018-05-07T21:40:34.692Z,47.06
2018-05-07T21:43:02.165Z,46.68
2018-05-07T21:45:29.563Z,46.84
2018-05-07T21:47:57.032Z,46.99
2018-05-07T21:50:24.764Z,47.18
2018-05-07T21:52:52.191Z,47.13
2018-05-07T21:55:19.662Z,47.17
2018-05-07T21:57:47.077Z,47.03
2018-05-07T22:00:14.497Z,47.22
2018-05-07T22:02:41.965Z,47.01
2018-05-07T22:05:09.387Z,46.93
2018-05-07T22:07:36.815Z,47.37
2018-05-07T22:10:04.293Z,47.21
2018-05-07T22:12:31.700Z,46.92
2018-05-07T22:14:59.162Z,46.92
2018-05-07T22:17:26.594Z,46.81
2018-05-07T22:19:54.023Z,46.84
2018-05-07T22:22:21.487Z,47.25
2018-05-07T22:24:48.962Z,47.14
2018-05-07T22:27:16.414Z,47.24
2018-05-07T22:29:43.821Z,47.42
2018-05-07T22:32:11.327Z,47.35
2018-05-07T22:34:38.767Z,47.56
2018-05-07T22:37:06.164Z,47.57
2018-05-07T22:39:33.638Z,47.87
2018-05-07T22:42:01.093Z,48.59
2018-05-07T22:44:28.523Z,48.48
2018-05-07T22:46:55.999Z,48.65
2018-05-07T22:49:23.515Z,48.63
2018-05-07T22:51:50.947Z,48.49
2018-05-07T22:54:18.403Z,48.42
2018-05-07T22:56:45.860Z,48.34
2018-05-07T22:59:13.301Z,48.29
2018-05-07T23:01:40.810Z,48.42
2018-05-07T23:04:08.253Z,48.62
2018-05-07T23:06:35.650Z,48.39
2018-05-07T23:09:03.133Z,48.28
2018-05-07T23:11:31.247Z,48.42
2018-05-07T23:13:58.679Z,48.46
2018-05-07T23:16:26.156Z,48.20
2018-05-07T23:18:53.563Z,48.00
2018-05-07T23:21:22.033Z,48.17
2018-05-07T23:23:49.571Z,48.44
2018-05-07T23:26:17.048Z,48.51
2018-05-07T23:28:44.480Z,48.80
2018-05-07T23:31:11.948Z,49.06
2018-05-07T23:33:39.371Z,49.17
2018-05-07T23:36:06.841Z,49.06
2018-05-07T23:38:34.279Z,49.12
2018-05-07T23:41:01.788Z,49.41
2018-05-07T23:43:29.171Z,49.50
2018-05-07T23:45:56.562Z,49.77
2018-05-07T23:48:24.003Z,49.91
2018-05-07T23:50:51.499Z,49.95
2018-05-07T23:53:18.919Z,49.80
2018-05-07T23:55:46.347Z,49.76
2018-05-07T23:58:14.634Z,49.95
